Date,TemperatureHighF,TemperatureAvgF,TemperatureLowF,DewpointHighF,DewpointAvgF,DewpointLowF,HumidityHigh,HumidityAvg,HumidityLow,PressureMaxIn,PressureMinIn,WindSpeedMaxMPH,WindSpeedAvgMPH,GustSpeedMaxMPH,PrecipitationSumIn
2013-5-1,68,59,44,30,8,-9,37,14,10,30.08,29.71,1,0,1,0.00
2013-5-2,64,48,37,6,0,-13,21,14,10,30.23,30.08,1,0,1,0.00
2013-5-3,75,49,36,21,6,-6,25,18,10,30.14,29.88,13,1,13,0.07
2013-5-4,78,59,36,27,18,2,28,20,14,29.90,29.78,34,7,34,0.00
2013-5-5,74,62,55,32,22,16,34,22,14,29.98,29.86,32,11,32,0.00
2013-5-6,62,55,48,47,40,32,88,58,34,29.97,29.88,24,6,24,0.07
2013-5-7,72,57,42,42,32,19,87,46,14,29.98,29.81,21,7,21,0.00
2013-5-8,60,52,40,43,35,29,89,54,33,29.99,29.86,27,7,27,0.31
2013-5-9,65,51,39,40,35,31,80,57,33,30.04,29.95,17,4,17,0.00
2013-5-10,73,55,39,39,35,25,84,51,18,30.18,30.01,28,6,28,0.00
2013-5-11,76,59,42,40,32,22,77,43,15,30.24,30.15,18,5,18,0.00
2013-5-12,80,64,46,38,33,27,63,35,17,30.23,30.06,21,6,21,0.00
2013-5-13,87,71,52,38,31,23,49,25,13,30.18,30.03,14,5,14,0.00
2013-5-14,89,70,54,40,34,26,50,29,13,30.06,29.90,28,8,28,0.00
2013-5-15,88,72,57,44,34,20,55,28,13,29.99,29.83,28,8,28,0.00
2013-5-16,85,69,49,33,24,16,34,18,13,29.96,29.82,21,6,21,0.00
2013-5-17,84,68,48,33,23,16,35,19,12,29.96,29.84,27,7,27,0.00
2013-5-18,77,65,56,32,26,20,37,23,14,29.95,29.84,33,7,33,0.00
2013-5-19,73,61,50,37,28,20,53,31,14,29.92,29.81,31,10,31,0.00
2013-5-20,67,55,47,42,35,26,73,47,25,29.95,29.85,25,7,25,0.05
2013-5-21,75,59,40,40,31,20,84,42,14,29.99,29.85,26,6,26,0.00
2013-5-22,88,67,47,33,26,20,53,24,13,29.89,29.75,20,5,20,0.00
2013-5-23,88,71,49,33,26,18,35,19,12,29.94,29.80,33,10,33,0.00
2013-5-24,86,70,52,33,24,18,28,18,13,30.03,29.89,36,7,36,0.00
2013-5-25,88,70,48,33,24,15,30,18,13,30.03,29.87,26,6,26,0.00
2013-5-26,84,69,50,32,23,15,29,18,12,30.02,29.88,27,6,27,0.00
2013-5-27,80,66,48,27,22,14,28,18,13,29.97,29.81,22,6,22,0.00
2013-5-28,82,66,47,39,23,15,42,21,13,29.84,29.67,31,7,31,0.00
2013-5-29,75,62,51,42,31,20,68,35,14,29.79,29.68,36,12,36,0.00
2013-5-30,79,65,46,32,27,20,48,26,14,29.87,29.78,39,9,39,0.00
2013-5-31,79,65,45,28,23,18,38,21,14,30.00,29.84,36,10,36,0.00